메인 페이지
METAR-TAF:

METAR-TAF

공항 :

콩코드, 뉴햄프셔, 미국

위도: 43-11-43N, 경도: 071-30-04W, 고도: 105m

현재 날씨관측

예보는 36분 전, 19:51시(UTC)에 발표되었습니다.
북북서10kt
온도 0°C
습도 37%
기압 1024 hPa
시정: 16.1km
맑음

METAR: KCON 071951Z AUTO 33010KT 10SM CLR 00/M13 A3023 RMK AO2 SLP242 T00001128 $

시각: 15:27 (20:27 UTC)

예보

예보는 3 시간 7분 전, 17:20시(UTC)에 발표되었습니다.
예보 대상 시간: 07일 18시부터 08일 18시까지 (UTC)
북북서8kt
시정: 10km
고도 25000ft 상공 구름 조금

TAF: KCON 071720Z 0718/0818 33008KT P6SM FEW250

4,000개 이상의 공항 관측 자료 및 예보 (METAR 및 TAF 보고).

지도상에서 검색 가능한 기상관측소가 노란 점과 빨간 점으로 표시되어 있습니다.

기상관측소 명을 보려면 표시 위로 마우스를 이동하세요.

날씨 관측과 예보를 보려면 클릭하세요.

지도 변경 : 확대하려면 엑스 표시가 있는 녹색 버튼, 축소하려면 빼기 표시가 있는 녹색 버튼, 다음 페이지의 지도를 보려면 녹색 화살표를 클릭하세요.


METAR-TAF: